Main page
METAR-TAF:

METAR-TAF

Airports :

Cuneo International Airport

Cuneo, Italy

latitude: 44-32-47N, longitude: 007-37-20E, elevation: 386 m

Current weather observation

The report was made 37 minutes ago, at 00:20 UTC
Wind 5 kt from the Southwest
Temperature 20°C
Humidity 88%
Pressure 1015 hPa
Visibility 10 km or more

METAR: LIMZ 140020Z AUTO 22005KT 9999 ///////// 20/18 Q1015

Time: 02:57 (00:57 UTC)

Forecast

The report was made 1 hour and 57 minutes ago, at 23:00 UTC
Forecast valid from 14 at 00 UTC to 14 at 24 UTC
Wind 5 kt from variable directions
Visibility 10 km or more
Scattered clouds at a height of 7000 ft
Temporary
from 14 at 03 UTC to 14 at 12 UTC
Visibility: 4000 m
thunderstorm, rain

TAF: LIMZ 132300Z 1400/1424 VRB05KT 9999 SCT070 TEMPO 1403/1412 4000 TSRA

Weather observations and forecasts of more than 4000 airports (METAR and TAF reports).

The available stations are represented by yellow and red dots on the map.

Hover mouse over dot to see the name of the station.

Then click to see weather observations and forecasts.

To change the map : click on the green buttons with a black cross to zoom in, on the green button with a dash to zoom out, or on the green arrows for adjacent maps.


METAR-TAF: